sensor_id;sensor_type;location;lat;lon;timestamp;P1;durP1;ratioP1;P2;durP2;ratioP2
3066;SDS011;1544;48.834;9.194;2023-09-07T00:00:40;6.10;;;5.53;;
3066;SDS011;1544;48.834;9.194;2023-09-07T00:03:16;5.17;;;4.67;;
3066;SDS011;1544;48.834;9.194;2023-09-07T00:05:52;5.10;;;4.67;;
3066;SDS011;1544;48.834;9.194;2023-09-07T00:08:28;6.03;;;5.43;;
3066;SDS011;1544;48.834;9.194;2023-09-07T00:11:08;5.27;;;4.77;;
3066;SDS011;1544;48.834;9.194;2023-09-07T00:13:47;5.30;;;4.90;;
3066;SDS011;1544;48.834;9.194;2023-09-07T00:16:23;5.33;;;4.93;;
3066;SDS011;1544;48.834;9.194;2023-09-07T00:18:59;5.30;;;4.90;;
3066;SDS011;1544;48.834;9.194;2023-09-07T00:21:35;5.27;;;4.87;;
3066;SDS011;1544;48.834;9.194;2023-09-07T00:24:12;4.80;;;4.50;;
3066;SDS011;1544;48.834;9.194;2023-09-07T00:26:48;6.20;;;5.70;;
3066;SDS011;1544;48.834;9.194;2023-09-07T00:29:24;5.20;;;4.80;;
3066;SDS011;1544;48.834;9.194;2023-09-07T00:32:00;5.87;;;5.27;;
3066;SDS011;1544;48.834;9.194;2023-09-07T00:34:37;4.13;;;3.90;;
3066;SDS011;1544;48.834;9.194;2023-09-07T00:37:13;4.60;;;4.30;;
3066;SDS011;1544;48.834;9.194;2023-09-07T00:39:48;4.97;;;4.63;;
3066;SDS011;1544;48.834;9.194;2023-09-07T00:42:24;4.70;;;4.40;;
3066;SDS011;1544;48.834;9.194;2023-09-07T00:45:00;4.83;;;4.40;;
3066;SDS011;1544;48.834;9.194;2023-09-07T00:47:37;5.00;;;4.60;;
3066;SDS011;1544;48.834;9.194;2023-09-07T00:50:13;4.53;;;4.23;;
3066;SDS011;1544;48.834;9.194;2023-09-07T00:52:51;4.53;;;4.23;;
3066;SDS011;1544;48.834;9.194;2023-09-07T00:55:27;4.27;;;3.97;;
3066;SDS011;1544;48.834;9.194;2023-09-07T00:58:08;5.87;;;4.77;;
3066;SDS011;1544;48.834;9.194;2023-09-07T01:00:46;4.67;;;4.37;;
3066;SDS011;1544;48.834;9.194;2023-09-07T01:03:23;4.60;;;4.20;;
3066;SDS011;1544;48.834;9.194;2023-09-07T01:06:13;3.80;;;3.57;;
3066;SDS011;1544;48.834;9.194;2023-09-07T01:08:57;4.67;;;4.27;;
3066;SDS011;1544;48.834;9.194;2023-09-07T01:11:39;3.77;;;3.47;;
3066;SDS011;1544;48.834;9.194;2023-09-07T01:14:15;4.50;;;4.10;;
3066;SDS011;1544;48.834;9.194;2023-09-07T01:16:52;4.80;;;4.50;;
3066;SDS011;1544;48.834;9.194;2023-09-07T01:19:29;5.50;;;4.47;;
3066;SDS011;1544;48.834;9.194;2023-09-07T01:22:08;4.20;;;3.90;;
3066;SDS011;1544;48.834;9.194;2023-09-07T01:24:45;6.37;;;4.33;;
3066;SDS011;1544;48.834;9.194;2023-09-07T01:27:22;4.50;;;4.20;;
3066;SDS011;1544;48.834;9.194;2023-09-07T01:29:58;4.20;;;3.90;;
3066;SDS011;1544;48.834;9.194;2023-09-07T01:32:35;4.17;;;3.97;;
3066;SDS011;1544;48.834;9.194;2023-09-07T01:35:11;5.07;;;4.70;;
3066;SDS011;1544;48.834;9.194;2023-09-07T01:37:52;3.83;;;3.63;;
3066;SDS011;1544;48.834;9.194;2023-09-07T01:40:28;4.63;;;4.20;;
3066;SDS011;1544;48.834;9.194;2023-09-07T01:43:04;4.17;;;3.87;;
3066;SDS011;1544;48.834;9.194;2023-09-07T01:45:40;4.17;;;3.97;;
3066;SDS011;1544;48.834;9.194;2023-09-07T01:48:16;4.63;;;4.33;;
3066;SDS011;1544;48.834;9.194;2023-09-07T01:50:53;4.53;;;4.13;;
3066;SDS011;1544;48.834;9.194;2023-09-07T01:53:29;3.93;;;3.73;;
3066;SDS011;1544;48.834;9.194;2023-09-07T01:56:05;4.47;;;4.17;;
3066;SDS011;1544;48.834;9.194;2023-09-07T01:58:41;4.53;;;4.23;;
3066;SDS011;1544;48.834;9.194;2023-09-07T02:01:26;4.73;;;4.40;;
3066;SDS011;1544;48.834;9.194;2023-09-07T02:04:09;5.03;;;4.53;;
3066;SDS011;1544;48.834;9.194;2023-09-07T02:06:45;3.90;;;3.57;;
3066;SDS011;1544;48.834;9.194;2023-09-07T02:09:21;4.30;;;4.10;;
3066;SDS011;1544;48.834;9.194;2023-09-07T02:11:57;4.20;;;4.00;;
3066;SDS011;1544;48.834;9.194;2023-09-07T02:14:33;4.47;;;4.17;;
3066;SDS011;1544;48.834;9.194;2023-09-07T02:17:09;5.27;;;4.77;;
3066;SDS011;1544;48.834;9.194;2023-09-07T02:19:45;5.00;;;4.50;;
3066;SDS011;1544;48.834;9.194;2023-09-07T02:22:21;4.80;;;4.40;;
3066;SDS011;1544;48.834;9.194;2023-09-07T02:24:57;4.63;;;4.33;;
3066;SDS011;1544;48.834;9.194;2023-09-07T02:27:34;3.93;;;3.63;;
3066;SDS011;1544;48.834;9.194;2023-09-07T02:30:11;5.00;;;4.50;;
3066;SDS011;1544;48.834;9.194;2023-09-07T02:32:47;7.47;;;5.03;;
3066;SDS011;1544;48.834;9.194;2023-09-07T02:35:23;5.33;;;4.93;;
3066;SDS011;1544;48.834;9.194;2023-09-07T02:37:59;5.47;;;4.97;;
3066;SDS011;1544;48.834;9.194;2023-09-07T02:40:42;5.40;;;5.00;;
3066;SDS011;1544;48.834;9.194;2023-09-07T02:43:19;5.60;;;5.20;;
3066;SDS011;1544;48.834;9.194;2023-09-07T02:45:55;4.97;;;4.57;;
3066;SDS011;1544;48.834;9.194;2023-09-07T02:48:31;4.90;;;4.50;;
3066;SDS011;1544;48.834;9.194;2023-09-07T02:51:08;4.90;;;4.57;;
3066;SDS011;1544;48.834;9.194;2023-09-07T02:53:44;5.13;;;4.73;;
3066;SDS011;1544;48.834;9.194;2023-09-07T02:56:20;5.20;;;4.83;;
3066;SDS011;1544;48.834;9.194;2023-09-07T02:58:56;5.47;;;5.07;;
3066;SDS011;1544;48.834;9.194;2023-09-07T03:01:32;5.33;;;4.83;;
3066;SDS011;1544;48.834;9.194;2023-09-07T03:04:10;5.37;;;4.97;;
3066;SDS011;1544;48.834;9.194;2023-09-07T03:06:46;5.07;;;4.67;;
3066;SDS011;1544;48.834;9.194;2023-09-07T03:09:22;5.67;;;5.17;;
3066;SDS011;1544;48.834;9.194;2023-09-07T03:11:58;4.70;;;4.30;;
3066;SDS011;1544;48.834;9.194;2023-09-07T03:14:34;6.10;;;4.40;;
3066;SDS011;1544;48.834;9.194;2023-09-07T03:17:10;4.67;;;4.30;;
3066;SDS011;1544;48.834;9.194;2023-09-07T03:19:47;5.13;;;4.60;;
3066;SDS011;1544;48.834;9.194;2023-09-07T03:22:24;5.13;;;4.70;;
3066;SDS011;1544;48.834;9.194;2023-09-07T03:25:00;5.10;;;4.60;;
3066;SDS011;1544;48.834;9.194;2023-09-07T03:27:36;5.20;;;4.80;;
3066;SDS011;1544;48.834;9.194;2023-09-07T03:30:14;5.60;;;5.20;;
3066;SDS011;1544;48.834;9.194;2023-09-07T03:32:52;6.00;;;5.50;;
3066;SDS011;1544;48.834;9.194;2023-09-07T03:35:28;6.13;;;5.63;;
3066;SDS011;1544;48.834;9.194;2023-09-07T03:38:04;5.97;;;5.47;;
3066;SDS011;1544;48.834;9.194;2023-09-07T03:40:40;5.77;;;5.27;;
3066;SDS011;1544;48.834;9.194;2023-09-07T03:43:17;5.03;;;4.73;;
3066;SDS011;1544;48.834;9.194;2023-09-07T03:45:54;6.47;;;5.20;;
3066;SDS011;1544;48.834;9.194;2023-09-07T03:48:30;5.70;;;5.20;;
3066;SDS011;1544;48.834;9.194;2023-09-07T03:51:07;6.53;;;5.87;;
3066;SDS011;1544;48.834;9.194;2023-09-07T03:53:43;6.30;;;5.70;;
3066;SDS011;1544;48.834;9.194;2023-09-07T03:56:19;6.20;;;5.70;;
3066;SDS011;1544;48.834;9.194;2023-09-07T03:58:55;5.53;;;5.07;;
3066;SDS011;1544;48.834;9.194;2023-09-07T04:01:31;6.73;;;5.77;;
3066;SDS011;1544;48.834;9.194;2023-09-07T04:04:07;6.07;;;5.57;;
3066;SDS011;1544;48.834;9.194;2023-09-07T04:06:46;6.80;;;6.20;;
3066;SDS011;1544;48.834;9.194;2023-09-07T04:09:24;6.10;;;5.70;;
3066;SDS011;1544;48.834;9.194;2023-09-07T04:12:00;6.40;;;5.90;;
3066;SDS011;1544;48.834;9.194;2023-09-07T04:14:36;6.70;;;6.00;;
3066;SDS011;1544;48.834;9.194;2023-09-07T04:17:13;9.33;;;7.00;;
3066;SDS011;1544;48.834;9.194;2023-09-07T04:19:49;7.00;;;6.40;;
3066;SDS011;1544;48.834;9.194;2023-09-07T04:22:25;7.07;;;6.00;;
3066;SDS011;1544;48.834;9.194;2023-09-07T04:25:01;6.10;;;5.50;;
3066;SDS011;1544;48.834;9.194;2023-09-07T04:27:37;6.73;;;5.70;;
3066;SDS011;1544;48.834;9.194;2023-09-07T04:30:15;6.90;;;6.17;;
3066;SDS011;1544;48.834;9.194;2023-09-07T04:32:51;5.63;;;5.17;;
3066;SDS011;1544;48.834;9.194;2023-09-07T04:35:30;6.77;;;6.17;;
3066;SDS011;1544;48.834;9.194;2023-09-07T04:38:09;6.43;;;5.83;;
3066;SDS011;1544;48.834;9.194;2023-09-07T04:40:45;6.20;;;5.70;;
3066;SDS011;1544;48.834;9.194;2023-09-07T04:43:21;9.73;;;6.57;;
3066;SDS011;1544;48.834;9.194;2023-09-07T04:45:57;8.37;;;6.30;;
3066;SDS011;1544;48.834;9.194;2023-09-07T04:48:33;7.13;;;6.40;;
3066;SDS011;1544;48.834;9.194;2023-09-07T04:51:10;7.03;;;6.30;;
3066;SDS011;1544;48.834;9.194;2023-09-07T04:53:48;7.73;;;7.03;;
3066;SDS011;1544;48.834;9.194;2023-09-07T04:56:24;7.17;;;6.47;;
3066;SDS011;1544;48.834;9.194;2023-09-07T04:59:01;8.13;;;7.30;;
3066;SDS011;1544;48.834;9.194;2023-09-07T05:01:37;8.63;;;7.80;;
3066;SDS011;1544;48.834;9.194;2023-09-07T05:04:14;10.20;;;8.07;;
3066;SDS011;1544;48.834;9.194;2023-09-07T05:06:50;7.43;;;6.43;;
3066;SDS011;1544;48.834;9.194;2023-09-07T05:09:26;8.17;;;7.40;;
3066;SDS011;1544;48.834;9.194;2023-09-07T05:12:04;7.57;;;6.87;;
3066;SDS011;1544;48.834;9.194;2023-09-07T05:14:40;7.53;;;6.80;;
3066;SDS011;1544;48.834;9.194;2023-09-07T05:17:16;8.40;;;7.57;;
3066;SDS011;1544;48.834;9.194;2023-09-07T05:19:52;7.63;;;6.97;;
3066;SDS011;1544;48.834;9.194;2023-09-07T05:22:28;7.83;;;7.10;;
3066;SDS011;1544;48.834;9.194;2023-09-07T05:25:05;8.93;;;8.03;;
3066;SDS011;1544;48.834;9.194;2023-09-07T05:27:41;9.60;;;7.83;;
3066;SDS011;1544;48.834;9.194;2023-09-07T05:30:18;8.60;;;7.80;;
3066;SDS011;1544;48.834;9.194;2023-09-07T05:32:54;8.63;;;7.83;;
3066;SDS011;1544;48.834;9.194;2023-09-07T05:35:30;9.03;;;8.23;;
3066;SDS011;1544;48.834;9.194;2023-09-07T05:38:08;8.47;;;7.67;;
3066;SDS011;1544;48.834;9.194;2023-09-07T05:40:46;7.97;;;7.27;;
3066;SDS011;1544;48.834;9.194;2023-09-07T05:43:26;8.00;;;7.10;;
3066;SDS011;1544;48.834;9.194;2023-09-07T05:46:02;6.77;;;6.27;;
3066;SDS011;1544;48.834;9.194;2023-09-07T05:48:38;10.47;;;8.03;;
3066;SDS011;1544;48.834;9.194;2023-09-07T05:51:15;7.80;;;7.13;;
3066;SDS011;1544;48.834;9.194;2023-09-07T05:53:51;6.57;;;5.97;;
3066;SDS011;1544;48.834;9.194;2023-09-07T05:56:30;6.87;;;6.27;;
3066;SDS011;1544;48.834;9.194;2023-09-07T05:59:08;5.53;;;5.13;;
3066;SDS011;1544;48.834;9.194;2023-09-07T06:01:44;5.73;;;5.33;;
3066;SDS011;1544;48.834;9.194;2023-09-07T06:04:20;8.37;;;6.40;;
3066;SDS011;1544;48.834;9.194;2023-09-07T06:06:57;6.87;;;6.27;;
3066;SDS011;1544;48.834;9.194;2023-09-07T06:09:33;7.63;;;6.50;;
3066;SDS011;1544;48.834;9.194;2023-09-07T06:12:09;7.23;;;6.60;;
3066;SDS011;1544;48.834;9.194;2023-09-07T06:14:46;7.27;;;6.50;;
3066;SDS011;1544;48.834;9.194;2023-09-07T06:17:22;8.17;;;6.30;;
3066;SDS011;1544;48.834;9.194;2023-09-07T06:19:58;7.07;;;6.37;;
3066;SDS011;1544;48.834;9.194;2023-09-07T06:22:35;7.40;;;6.60;;
3066;SDS011;1544;48.834;9.194;2023-09-07T06:25:11;7.33;;;6.73;;
3066;SDS011;1544;48.834;9.194;2023-09-07T06:27:50;7.37;;;6.67;;
3066;SDS011;1544;48.834;9.194;2023-09-07T06:30:26;8.23;;;6.73;;
3066;SDS011;1544;48.834;9.194;2023-09-07T06:33:02;7.47;;;6.77;;
3066;SDS011;1544;48.834;9.194;2023-09-07T06:35:39;7.60;;;6.73;;
3066;SDS011;1544;48.834;9.194;2023-09-07T06:38:15;7.20;;;6.60;;
3066;SDS011;1544;48.834;9.194;2023-09-07T06:40:51;9.23;;;7.03;;
3066;SDS011;1544;48.834;9.194;2023-09-07T06:43:28;7.50;;;6.90;;
3066;SDS011;1544;48.834;9.194;2023-09-07T06:46:08;7.43;;;6.83;;
3066;SDS011;1544;48.834;9.194;2023-09-07T06:48:45;8.20;;;7.50;;
3066;SDS011;1544;48.834;9.194;2023-09-07T06:51:21;8.73;;;7.93;;
3066;SDS011;1544;48.834;9.194;2023-09-07T06:53:57;8.50;;;7.80;;
3066;SDS011;1544;48.834;9.194;2023-09-07T06:56:34;8.57;;;7.40;;
3066;SDS011;1544;48.834;9.194;2023-09-07T06:59:11;9.63;;;6.53;;
3066;SDS011;1544;48.834;9.194;2023-09-07T07:01:47;7.33;;;6.63;;
3066;SDS011;1544;48.834;9.194;2023-09-07T07:04:23;6.47;;;5.87;;
3066;SDS011;1544;48.834;9.194;2023-09-07T07:06:59;6.87;;;6.27;;
3066;SDS011;1544;48.834;9.194;2023-09-07T07:09:37;7.53;;;6.60;;
3066;SDS011;1544;48.834;9.194;2023-09-07T07:12:13;6.87;;;6.27;;
3066;SDS011;1544;48.834;9.194;2023-09-07T07:14:49;5.83;;;5.43;;
3066;SDS011;1544;48.834;9.194;2023-09-07T07:17:25;6.00;;;5.60;;
3066;SDS011;1544;48.834;9.194;2023-09-07T07:20:02;5.47;;;5.07;;
3066;SDS011;1544;48.834;9.194;2023-09-07T07:22:38;6.80;;;6.20;;
3066;SDS011;1544;48.834;9.194;2023-09-07T07:25:15;5.90;;;5.47;;
3066;SDS011;1544;48.834;9.194;2023-09-07T07:27:51;5.67;;;5.27;;
3066;SDS011;1544;48.834;9.194;2023-09-07T07:30:27;6.57;;;6.00;;
3066;SDS011;1544;48.834;9.194;2023-09-07T07:33:05;6.33;;;5.60;;
3066;SDS011;1544;48.834;9.194;2023-09-07T07:35:42;6.83;;;6.23;;
3066;SDS011;1544;48.834;9.194;2023-09-07T07:38:19;6.00;;;5.50;;
3066;SDS011;1544;48.834;9.194;2023-09-07T07:40:55;5.57;;;5.07;;
3066;SDS011;1544;48.834;9.194;2023-09-07T07:43:32;4.90;;;4.60;;
3066;SDS011;1544;48.834;9.194;2023-09-07T07:46:09;6.50;;;5.90;;
3066;SDS011;1544;48.834;9.194;2023-09-07T07:48:46;5.97;;;5.23;;
3066;SDS011;1544;48.834;9.194;2023-09-07T07:51:22;5.77;;;5.27;;
3066;SDS011;1544;48.834;9.194;2023-09-07T07:53:59;6.60;;;6.10;;
3066;SDS011;1544;48.834;9.194;2023-09-07T07:56:36;5.53;;;5.10;;
3066;SDS011;1544;48.834;9.194;2023-09-07T07:59:14;5.13;;;4.73;;
3066;SDS011;1544;48.834;9.194;2023-09-07T08:01:50;7.30;;;6.30;;
3066;SDS011;1544;48.834;9.194;2023-09-07T08:04:26;6.33;;;5.83;;
3066;SDS011;1544;48.834;9.194;2023-09-07T08:07:02;5.90;;;5.50;;
3066;SDS011;1544;48.834;9.194;2023-09-07T08:09:40;6.53;;;5.90;;
3066;SDS011;1544;48.834;9.194;2023-09-07T08:12:17;5.67;;;5.33;;
3066;SDS011;1544;48.834;9.194;2023-09-07T08:14:53;6.83;;;6.33;;
3066;SDS011;1544;48.834;9.194;2023-09-07T08:17:29;6.07;;;5.67;;
3066;SDS011;1544;48.834;9.194;2023-09-07T08:20:06;6.07;;;5.67;;
3066;SDS011;1544;48.834;9.194;2023-09-07T08:22:46;5.40;;;5.03;;
3066;SDS011;1544;48.834;9.194;2023-09-07T08:25:22;5.60;;;5.20;;
3066;SDS011;1544;48.834;9.194;2023-09-07T08:27:58;5.30;;;5.00;;
3066;SDS011;1544;48.834;9.194;2023-09-07T08:30:35;5.57;;;5.17;;
3066;SDS011;1544;48.834;9.194;2023-09-07T08:33:12;5.30;;;4.90;;
3066;SDS011;1544;48.834;9.194;2023-09-07T08:35:57;6.73;;;6.13;;
3066;SDS011;1544;48.834;9.194;2023-09-07T08:38:35;5.73;;;5.33;;
3066;SDS011;1544;48.834;9.194;2023-09-07T08:41:11;5.70;;;5.40;;
3066;SDS011;1544;48.834;9.194;2023-09-07T08:43:48;6.23;;;5.83;;
3066;SDS011;1544;48.834;9.194;2023-09-07T08:46:28;6.00;;;5.50;;
3066;SDS011;1544;48.834;9.194;2023-09-07T08:49:05;7.40;;;6.87;;
3066;SDS011;1544;48.834;9.194;2023-09-07T08:51:42;7.03;;;6.43;;
3066;SDS011;1544;48.834;9.194;2023-09-07T08:54:18;6.20;;;5.70;;
3066;SDS011;1544;48.834;9.194;2023-09-07T08:56:56;6.43;;;5.87;;
3066;SDS011;1544;48.834;9.194;2023-09-07T08:59:33;6.47;;;5.97;;
3066;SDS011;1544;48.834;9.194;2023-09-07T09:02:09;6.90;;;6.40;;
3066;SDS011;1544;48.834;9.194;2023-09-07T09:04:46;5.77;;;5.40;;
3066;SDS011;1544;48.834;9.194;2023-09-07T09:07:22;6.53;;;6.03;;
3066;SDS011;1544;48.834;9.194;2023-09-07T09:10:02;5.77;;;5.37;;
3066;SDS011;1544;48.834;9.194;2023-09-07T09:12:46;6.30;;;5.73;;
3066;SDS011;1544;48.834;9.194;2023-09-07T09:15:25;6.23;;;5.83;;
3066;SDS011;1544;48.834;9.194;2023-09-07T09:18:11;6.77;;;6.07;;
3066;SDS011;1544;48.834;9.194;2023-09-07T09:20:49;6.17;;;5.73;;
3066;SDS011;1544;48.834;9.194;2023-09-07T09:23:29;5.87;;;5.47;;
3066;SDS011;1544;48.834;9.194;2023-09-07T09:26:10;5.90;;;5.47;;
3066;SDS011;1544;48.834;9.194;2023-09-07T09:28:46;5.43;;;5.13;;
3066;SDS011;1544;48.834;9.194;2023-09-07T09:31:23;5.60;;;5.30;;
3066;SDS011;1544;48.834;9.194;2023-09-07T09:34:00;6.80;;;6.30;;
3066;SDS011;1544;48.834;9.194;2023-09-07T09:36:38;4.57;;;4.30;;
3066;SDS011;1544;48.834;9.194;2023-09-07T09:39:23;6.20;;;5.77;;
3066;SDS011;1544;48.834;9.194;2023-09-07T09:42:00;6.17;;;5.73;;
3066;SDS011;1544;48.834;9.194;2023-09-07T09:44:37;6.03;;;5.67;;
3066;SDS011;1544;48.834;9.194;2023-09-07T09:47:15;5.47;;;5.17;;
3066;SDS011;1544;48.834;9.194;2023-09-07T09:49:51;6.57;;;6.07;;
3066;SDS011;1544;48.834;9.194;2023-09-07T09:52:28;5.63;;;5.33;;
3066;SDS011;1544;48.834;9.194;2023-09-07T09:55:05;5.80;;;5.43;;
3066;SDS011;1544;48.834;9.194;2023-09-07T09:57:43;6.10;;;5.70;;
3066;SDS011;1544;48.834;9.194;2023-09-07T10:00:19;7.00;;;6.40;;
3066;SDS011;1544;48.834;9.194;2023-09-07T10:03:08;6.10;;;5.60;;
3066;SDS011;1544;48.834;9.194;2023-09-07T10:05:49;5.43;;;5.07;;
3066;SDS011;1544;48.834;9.194;2023-09-07T10:08:25;5.43;;;5.07;;
3066;SDS011;1544;48.834;9.194;2023-09-07T10:11:09;5.73;;;5.43;;
3066;SDS011;1544;48.834;9.194;2023-09-07T10:13:45;5.53;;;5.23;;
3066;SDS011;1544;48.834;9.194;2023-09-07T10:16:46;5.07;;;4.77;;
3066;SDS011;1544;48.834;9.194;2023-09-07T10:19:25;7.20;;;6.60;;
3066;SDS011;1544;48.834;9.194;2023-09-07T10:22:01;5.30;;;5.00;;
3066;SDS011;1544;48.834;9.194;2023-09-07T10:24:38;5.90;;;5.40;;
3066;SDS011;1544;48.834;9.194;2023-09-07T10:27:17;5.37;;;5.07;;
3066;SDS011;1544;48.834;9.194;2023-09-07T10:29:54;5.30;;;5.00;;
3066;SDS011;1544;48.834;9.194;2023-09-07T10:32:37;5.00;;;4.70;;
3066;SDS011;1544;48.834;9.194;2023-09-07T10:35:18;5.00;;;4.80;;
3066;SDS011;1544;48.834;9.194;2023-09-07T10:37:57;5.33;;;5.03;;
3066;SDS011;1544;48.834;9.194;2023-09-07T10:40:33;5.23;;;4.83;;
3066;SDS011;1544;48.834;9.194;2023-09-07T10:43:10;6.60;;;6.10;;
3066;SDS011;1544;48.834;9.194;2023-09-07T10:45:46;5.00;;;4.80;;
3066;SDS011;1544;48.834;9.194;2023-09-07T10:48:28;6.10;;;5.60;;
3066;SDS011;1544;48.834;9.194;2023-09-07T10:51:06;6.10;;;5.63;;
3066;SDS011;1544;48.834;9.194;2023-09-07T10:53:42;5.00;;;4.80;;
3066;SDS011;1544;48.834;9.194;2023-09-07T10:56:18;5.60;;;5.30;;
3066;SDS011;1544;48.834;9.194;2023-09-07T10:58:54;5.30;;;5.00;;
3066;SDS011;1544;48.834;9.194;2023-09-07T11:01:30;5.53;;;5.23;;
3066;SDS011;1544;48.834;9.194;2023-09-07T11:04:06;5.80;;;5.33;;
3066;SDS011;1544;48.834;9.194;2023-09-07T11:06:43;5.93;;;5.53;;
3066;SDS011;1544;48.834;9.194;2023-09-07T11:09:20;5.27;;;5.00;;
3066;SDS011;1544;48.834;9.194;2023-09-07T11:11:56;5.47;;;4.83;;
3066;SDS011;1544;48.834;9.194;2023-09-07T11:14:32;6.03;;;5.70;;
3066;SDS011;1544;48.834;9.194;2023-09-07T11:17:08;5.00;;;4.80;;
3066;SDS011;1544;48.834;9.194;2023-09-07T11:19:45;4.50;;;4.30;;
3066;SDS011;1544;48.834;9.194;2023-09-07T11:22:28;5.60;;;5.30;;
3066;SDS011;1544;48.834;9.194;2023-09-07T11:25:05;4.50;;;4.20;;
3066;SDS011;1544;48.834;9.194;2023-09-07T11:27:41;3.80;;;3.70;;
3066;SDS011;1544;48.834;9.194;2023-09-07T11:30:17;4.80;;;4.50;;
3066;SDS011;1544;48.834;9.194;2023-09-07T11:33:00;4.43;;;4.13;;
3066;SDS011;1544;48.834;9.194;2023-09-07T11:35:42;4.40;;;3.90;;
3066;SDS011;1544;48.834;9.194;2023-09-07T11:38:18;4.63;;;4.40;;
3066;SDS011;1544;48.834;9.194;2023-09-07T11:40:54;4.37;;;4.17;;
3066;SDS011;1544;48.834;9.194;2023-09-07T11:43:31;4.60;;;4.30;;
3066;SDS011;1544;48.834;9.194;2023-09-07T11:46:09;4.00;;;3.80;;
3066;SDS011;1544;48.834;9.194;2023-09-07T11:48:47;4.20;;;3.93;;
3066;SDS011;1544;48.834;9.194;2023-09-07T11:51:23;4.90;;;4.57;;
3066;SDS011;1544;48.834;9.194;2023-09-07T11:53:59;4.70;;;4.40;;
3066;SDS011;1544;48.834;9.194;2023-09-07T11:56:37;5.50;;;5.00;;
3066;SDS011;1544;48.834;9.194;2023-09-07T11:59:18;4.00;;;3.80;;
3066;SDS011;1544;48.834;9.194;2023-09-07T12:01:54;4.37;;;4.17;;
3066;SDS011;1544;48.834;9.194;2023-09-07T12:04:30;4.43;;;4.13;;
3066;SDS011;1544;48.834;9.194;2023-09-07T12:07:06;4.50;;;4.30;;
3066;SDS011;1544;48.834;9.194;2023-09-07T12:09:43;10.33;;;9.33;;
3066;SDS011;1544;48.834;9.194;2023-09-07T12:12:19;5.93;;;5.53;;
3066;SDS011;1544;48.834;9.194;2023-09-07T12:14:55;4.70;;;4.50;;
3066;SDS011;1544;48.834;9.194;2023-09-07T12:17:31;4.93;;;4.70;;
3066;SDS011;1544;48.834;9.194;2023-09-07T12:20:08;6.13;;;5.83;;
3066;SDS011;1544;48.834;9.194;2023-09-07T12:22:46;6.00;;;5.60;;
3066;SDS011;1544;48.834;9.194;2023-09-07T12:25:22;4.83;;;4.53;;
3066;SDS011;1544;48.834;9.194;2023-09-07T12:27:58;4.37;;;4.17;;
3066;SDS011;1544;48.834;9.194;2023-09-07T12:30:34;5.90;;;5.60;;
3066;SDS011;1544;48.834;9.194;2023-09-07T12:33:10;6.10;;;5.70;;
3066;SDS011;1544;48.834;9.194;2023-09-07T12:35:46;5.60;;;5.30;;
3066;SDS011;1544;48.834;9.194;2023-09-07T12:38:22;4.67;;;4.47;;
3066;SDS011;1544;48.834;9.194;2023-09-07T12:41:03;5.60;;;5.10;;
3066;SDS011;1544;48.834;9.194;2023-09-07T12:43:39;4.17;;;3.97;;
3066;SDS011;1544;48.834;9.194;2023-09-07T12:46:15;4.77;;;4.37;;
3066;SDS011;1544;48.834;9.194;2023-09-07T12:48:51;5.00;;;4.60;;
3066;SDS011;1544;48.834;9.194;2023-09-07T12:51:26;4.63;;;4.37;;
3066;SDS011;1544;48.834;9.194;2023-09-07T12:54:02;4.17;;;3.97;;
3066;SDS011;1544;48.834;9.194;2023-09-07T12:56:39;4.23;;;4.03;;
3066;SDS011;1544;48.834;9.194;2023-09-07T12:59:15;3.93;;;3.73;;
3066;SDS011;1544;48.834;9.194;2023-09-07T13:01:51;4.40;;;4.07;;
3066;SDS011;1544;48.834;9.194;2023-09-07T13:04:30;4.43;;;4.03;;
3066;SDS011;1544;48.834;9.194;2023-09-07T13:07:06;3.87;;;3.57;;
3066;SDS011;1544;48.834;9.194;2023-09-07T13:09:42;4.20;;;3.90;;
3066;SDS011;1544;48.834;9.194;2023-09-07T13:12:20;4.00;;;3.80;;
3066;SDS011;1544;48.834;9.194;2023-09-07T13:14:56;4.13;;;3.93;;
3066;SDS011;1544;48.834;9.194;2023-09-07T13:17:32;3.63;;;3.43;;
3066;SDS011;1544;48.834;9.194;2023-09-07T13:20:08;3.93;;;3.70;;
3066;SDS011;1544;48.834;9.194;2023-09-07T13:22:44;3.70;;;3.50;;
3066;SDS011;1544;48.834;9.194;2023-09-07T13:25:21;4.33;;;4.07;;
3066;SDS011;1544;48.834;9.194;2023-09-07T13:27:57;3.13;;;2.93;;
3066;SDS011;1544;48.834;9.194;2023-09-07T13:30:36;3.30;;;3.20;;
3066;SDS011;1544;48.834;9.194;2023-09-07T13:33:12;3.97;;;3.77;;
3066;SDS011;1544;48.834;9.194;2023-09-07T13:35:51;3.50;;;3.40;;
3066;SDS011;1544;48.834;9.194;2023-09-07T13:38:27;3.80;;;3.60;;
3066;SDS011;1544;48.834;9.194;2023-09-07T13:41:03;3.80;;;3.60;;
3066;SDS011;1544;48.834;9.194;2023-09-07T13:43:39;3.40;;;3.30;;
3066;SDS011;1544;48.834;9.194;2023-09-07T13:46:15;3.13;;;2.90;;
3066;SDS011;1544;48.834;9.194;2023-09-07T13:48:52;3.17;;;3.07;;
3066;SDS011;1544;48.834;9.194;2023-09-07T13:51:28;4.37;;;3.23;;
3066;SDS011;1544;48.834;9.194;2023-09-07T13:54:07;3.17;;;2.97;;
3066;SDS011;1544;48.834;9.194;2023-09-07T13:56:44;2.73;;;2.63;;
3066;SDS011;1544;48.834;9.194;2023-09-07T13:59:22;3.50;;;3.30;;
3066;SDS011;1544;48.834;9.194;2023-09-07T14:01:59;3.53;;;3.33;;
3066;SDS011;1544;48.834;9.194;2023-09-07T14:04:35;3.60;;;3.50;;
3066;SDS011;1544;48.834;9.194;2023-09-07T14:07:11;3.50;;;3.30;;
3066;SDS011;1544;48.834;9.194;2023-09-07T14:09:48;3.67;;;3.47;;
3066;SDS011;1544;48.834;9.194;2023-09-07T14:12:24;3.23;;;3.03;;
3066;SDS011;1544;48.834;9.194;2023-09-07T14:15:00;3.50;;;3.30;;
3066;SDS011;1544;48.834;9.194;2023-09-07T14:17:36;2.70;;;2.60;;
3066;SDS011;1544;48.834;9.194;2023-09-07T14:20:12;3.37;;;3.20;;
3066;SDS011;1544;48.834;9.194;2023-09-07T14:22:48;2.97;;;2.80;;
3066;SDS011;1544;48.834;9.194;2023-09-07T14:25:24;2.90;;;2.70;;
3066;SDS011;1544;48.834;9.194;2023-09-07T14:28:00;2.90;;;2.80;;
3066;SDS011;1544;48.834;9.194;2023-09-07T14:30:36;3.30;;;3.10;;
3066;SDS011;1544;48.834;9.194;2023-09-07T14:33:12;3.33;;;3.13;;
3066;SDS011;1544;48.834;9.194;2023-09-07T14:35:48;2.87;;;2.67;;
3066;SDS011;1544;48.834;9.194;2023-09-07T14:38:29;3.27;;;3.07;;
3066;SDS011;1544;48.834;9.194;2023-09-07T14:41:06;3.30;;;3.10;;
3066;SDS011;1544;48.834;9.194;2023-09-07T14:43:51;3.53;;;3.23;;
3066;SDS011;1544;48.834;9.194;2023-09-07T14:46:27;2.53;;;2.40;;
3066;SDS011;1544;48.834;9.194;2023-09-07T14:49:03;3.23;;;3.03;;
3066;SDS011;1544;48.834;9.194;2023-09-07T14:51:39;3.50;;;3.30;;
3066;SDS011;1544;48.834;9.194;2023-09-07T14:54:15;2.80;;;2.70;;
3066;SDS011;1544;48.834;9.194;2023-09-07T14:56:51;3.53;;;2.67;;
3066;SDS011;1544;48.834;9.194;2023-09-07T14:59:27;3.20;;;3.10;;
3066;SDS011;1544;48.834;9.194;2023-09-07T15:02:03;2.90;;;2.80;;
3066;SDS011;1544;48.834;9.194;2023-09-07T15:04:39;2.93;;;2.83;;
3066;SDS011;1544;48.834;9.194;2023-09-07T15:07:18;3.40;;;3.10;;
3066;SDS011;1544;48.834;9.194;2023-09-07T15:09:55;3.83;;;3.53;;
3066;SDS011;1544;48.834;9.194;2023-09-07T15:12:31;3.40;;;3.20;;
3066;SDS011;1544;48.834;9.194;2023-09-07T15:15:07;3.00;;;2.90;;
3066;SDS011;1544;48.834;9.194;2023-09-07T15:17:46;2.80;;;2.70;;
3066;SDS011;1544;48.834;9.194;2023-09-07T15:20:23;2.97;;;2.87;;
3066;SDS011;1544;48.834;9.194;2023-09-07T15:22:59;3.43;;;3.23;;
3066;SDS011;1544;48.834;9.194;2023-09-07T15:25:35;2.60;;;2.50;;
3066;SDS011;1544;48.834;9.194;2023-09-07T15:28:11;3.10;;;3.00;;
3066;SDS011;1544;48.834;9.194;2023-09-07T15:30:48;3.13;;;3.03;;
3066;SDS011;1544;48.834;9.194;2023-09-07T15:33:24;3.63;;;3.20;;
3066;SDS011;1544;48.834;9.194;2023-09-07T15:36:01;3.17;;;3.07;;
3066;SDS011;1544;48.834;9.194;2023-09-07T15:38:37;2.67;;;2.57;;
3066;SDS011;1544;48.834;9.194;2023-09-07T15:41:13;3.70;;;3.50;;
3066;SDS011;1544;48.834;9.194;2023-09-07T15:43:48;4.03;;;3.33;;
3066;SDS011;1544;48.834;9.194;2023-09-07T15:46:24;3.40;;;3.10;;
3066;SDS011;1544;48.834;9.194;2023-09-07T15:49:00;2.80;;;2.70;;
3066;SDS011;1544;48.834;9.194;2023-09-07T15:51:37;2.67;;;2.47;;
3066;SDS011;1544;48.834;9.194;2023-09-07T15:54:12;3.50;;;3.30;;
3066;SDS011;1544;48.834;9.194;2023-09-07T15:56:48;3.47;;;3.17;;
3066;SDS011;1544;48.834;9.194;2023-09-07T15:59:30;3.00;;;2.90;;
3066;SDS011;1544;48.834;9.194;2023-09-07T16:02:07;3.63;;;3.43;;
3066;SDS011;1544;48.834;9.194;2023-09-07T16:04:43;3.10;;;2.90;;
3066;SDS011;1544;48.834;9.194;2023-09-07T16:07:19;3.23;;;3.00;;
3066;SDS011;1544;48.834;9.194;2023-09-07T16:09:55;3.73;;;3.50;;
3066;SDS011;1544;48.834;9.194;2023-09-07T16:12:31;2.97;;;2.87;;
3066;SDS011;1544;48.834;9.194;2023-09-07T16:15:07;2.90;;;2.70;;